Time;durP1;ratioP1;P1;durP2;ratioP2;P2;SDS_P1;SDS_P2;PMS_P1;PMS_P2;Temp;Humidity;BMP_temperature;BMP_pressure;BME280_temperature;BME280_humidity;BME280_pressure;Samples;Min_cycle;Max_cycle;Signal;HPM_P1;HPM_P2
2022/03/30 00:02:01;;;;;;;27.27;23.83;;;11.80;99.90;;;;;;5951253;24;20241;-80
2022/03/30 00:04:28;;;;;;;27.77;24.77;;;11.80;99.90;;;;;;5950496;24;20543;-81
2022/03/30 00:06:55;;;;;;;29.10;26.05;;;11.80;99.90;;;;;;5949053;24;20233;-84
2022/03/30 00:09:22;;;;;;;29.30;26.17;;;11.80;99.90;;;;;;5950910;24;20245;-78
2022/03/30 00:11:53;;;;;;;28.15;24.42;;;11.70;99.90;;;;;;5950044;24;20189;-79
2022/03/30 00:14:22;;;;;;;26.08;23.27;;;11.60;99.90;;;;;;5950578;24;20189;-79
2022/03/30 00:16:51;;;;;;;22.65;19.92;;;11.50;99.90;;;;;;5951593;24;20270;-78
2022/03/30 00:19:18;;;;;;;18.88;16.98;;;11.50;99.90;;;;;;5949082;24;20196;-78
2022/03/30 00:21:46;;;;;;;20.05;17.95;;;11.40;99.90;;;;;;5950359;24;20303;-77
2022/03/30 00:24:13;;;;;;;19.58;17.58;;;11.40;99.90;;;;;;5948208;24;20217;-78
2022/03/30 00:26:40;;;;;;;20.55;18.35;;;11.40;99.90;;;;;;5951310;24;20557;-78
2022/03/30 00:29:07;;;;;;;17.35;15.55;;;11.40;99.90;;;;;;5949614;24;20220;-78
2022/03/30 00:31:35;;;;;;;16.38;14.68;;;11.40;99.90;;;;;;5949265;24;20181;-79
2022/03/30 00:34:03;;;;;;;17.60;15.70;;;11.30;99.90;;;;;;5948690;24;20225;-78
2022/03/30 00:36:30;;;;;;;17.83;16.02;;;11.40;99.90;;;;;;5950853;24;20177;-78
2022/03/30 00:38:57;;;;;;;23.13;20.70;;;11.40;99.90;;;;;;5950069;24;20212;-78
2022/03/30 00:41:24;;;;;;;23.63;21.13;;;11.30;99.90;;;;;;5949429;24;20184;-78
2022/03/30 00:43:51;;;;;;;24.75;22.00;;;11.30;99.90;;;;;;5947742;24;20205;-79
2022/03/30 00:46:18;;;;;;;25.67;22.77;;;11.30;99.90;;;;;;5951635;24;20245;-78
2022/03/30 00:48:46;;;;;;;22.20;19.90;;;11.20;99.90;;;;;;5950553;24;20735;-80
2022/03/30 00:51:14;;;;;;;22.55;20.00;;;11.20;99.90;;;;;;5958488;24;20258;-78
2022/03/30 00:53:41;;;;;;;22.60;19.98;;;11.20;99.90;;;;;;5950771;24;20552;-78
2022/03/30 00:56:08;;;;;;;23.38;20.95;;;11.10;99.90;;;;;;5951895;24;20181;-79
2022/03/30 00:58:37;;;;;;;21.67;19.33;;;11.10;99.90;;;;;;5949704;24;20240;-78
2022/03/30 01:01:05;;;;;;;20.17;18.08;;;11.10;99.90;;;;;;5951419;24;20229;-78
2022/03/30 01:03:32;;;;;;;17.98;16.17;;;11.10;99.90;;;;;;5949939;24;20225;-78
2022/03/30 01:06:00;;;;;;;23.60;21.15;;;11.10;99.90;;;;;;5949275;24;20230;-78
2022/03/30 01:08:28;;;;;;;22.67;20.25;;;11.00;99.90;;;;;;5950969;24;20273;-79
2022/03/30 01:10:55;;;;;;;23.05;20.50;;;10.90;99.90;;;;;;5951998;24;20264;-79
2022/03/30 01:13:22;;;;;;;20.95;18.77;;;10.90;99.90;;;;;;5950766;24;20220;-79
2022/03/30 01:15:49;;;;;;;20.92;18.67;;;10.90;99.90;;;;;;5947796;24;20756;-79
2022/03/30 01:18:16;;;;;;;18.77;16.77;;;10.90;99.90;;;;;;5949493;24;20232;-79
2022/03/30 01:20:49;;;;;;;20.10;18.00;;;10.90;99.90;;;;;;5950698;24;20181;-79
2022/03/30 01:23:16;;;;;;;19.80;17.80;;;10.90;99.90;;;;;;5949363;24;20595;-79
2022/03/30 01:25:43;;;;;;;19.42;17.02;;;10.90;99.90;;;;;;5949491;24;20646;-79
2022/03/30 01:28:10;;;;;;;20.10;17.88;;;10.90;99.90;;;;;;5950023;24;20592;-78
2022/03/30 01:33:22;;;;;;;18.48;16.38;;;10.80;99.90;;;;;;5949006;24;20281;-79
2022/03/30 01:35:50;;;;;;;18.45;16.48;;;10.80;99.90;;;;;;5948395;24;20177;-79
2022/03/30 01:38:17;;;;;;;20.25;17.83;;;10.80;99.90;;;;;;5948993;24;20221;-78
2022/03/30 01:40:44;;;;;;;19.08;16.38;;;10.70;99.90;;;;;;5948759;24;20176;-78
2022/03/30 01:43:12;;;;;;;20.33;18.13;;;10.70;99.90;;;;;;5948484;24;20212;-78
2022/03/30 01:45:39;;;;;;;20.80;18.60;;;10.70;99.90;;;;;;5947464;24;20201;-78
2022/03/30 01:48:06;;;;;;;18.67;16.77;;;10.70;99.90;;;;;;5949999;24;20212;-78
2022/03/30 01:50:34;;;;;;;18.33;16.45;;;10.60;99.90;;;;;;5948988;24;20297;-78
2022/03/30 01:53:02;;;;;;;20.00;17.88;;;10.60;99.90;;;;;;5948199;24;20208;-78
2022/03/30 01:55:29;;;;;;;18.63;16.67;;;10.60;99.90;;;;;;5948199;24;20653;-78
2022/03/30 01:57:56;;;;;;;18.67;16.77;;;10.60;99.90;;;;;;5950494;24;20209;-79
2022/03/30 02:00:26;;;;;;;19.83;17.80;;;10.50;99.90;;;;;;5950680;24;20189;-78
2022/03/30 02:02:53;;;;;;;20.65;18.48;;;10.50;99.90;;;;;;5950398;24;20244;-79
2022/03/30 02:05:20;;;;;;;21.27;18.08;;;10.50;99.90;;;;;;5948263;24;20185;-78
2022/03/30 02:07:48;;;;;;;24.70;22.10;;;10.40;99.90;;;;;;5952072;24;20731;-79
2022/03/30 02:10:16;;;;;;;22.38;19.45;;;10.30;99.90;;;;;;5953842;24;20637;-78
2022/03/30 02:12:44;;;;;;;22.17;19.98;;;10.30;99.90;;;;;;5954128;24;20208;-78
2022/03/30 02:15:12;;;;;;;25.65;22.88;;;10.20;99.90;;;;;;5953436;24;20187;-77
2022/03/30 02:17:40;;;;;;;21.33;19.13;;;10.20;99.90;;;;;;5951546;24;20268;-78
2022/03/30 02:20:09;;;;;;;21.25;19.05;;;10.20;99.90;;;;;;5952943;24;20187;-78
2022/03/30 02:22:36;;;;;;;21.13;18.83;;;10.10;99.90;;;;;;5950601;24;20205;-78
2022/03/30 02:25:03;;;;;;;20.95;18.73;;;10.20;99.90;;;;;;5952332;24;20183;-78
2022/03/30 02:27:32;;;;;;;19.92;17.92;;;10.10;99.90;;;;;;5954481;24;20512;-78
2022/03/30 02:29:59;;;;;;;19.77;17.77;;;10.20;99.90;;;;;;5951796;24;20638;-78
2022/03/30 02:32:26;;;;;;;20.60;18.00;;;10.20;99.90;;;;;;5952946;24;20209;-80
2022/03/30 02:34:54;;;;;;;19.80;17.73;;;10.20;99.90;;;;;;5959414;24;20658;-79
2022/03/30 02:37:21;;;;;;;25.05;21.48;;;10.20;99.90;;;;;;5958774;24;20249;-79
2022/03/30 02:39:48;;;;;;;22.05;19.75;;;10.20;99.90;;;;;;5957569;24;20836;-79
2022/03/30 02:42:16;;;;;;;21.90;19.60;;;10.10;99.90;;;;;;5959067;24;20188;-79
2022/03/30 02:44:44;;;;;;;21.58;18.77;;;10.10;99.90;;;;;;5957473;24;20265;-79
2022/03/30 02:47:11;;;;;;;20.45;18.35;;;10.10;99.90;;;;;;5961255;24;20607;-78
2022/03/30 02:49:39;;;;;;;20.67;18.48;;;10.10;99.90;;;;;;5956020;24;20204;-78
2022/03/30 02:52:06;;;;;;;21.05;18.40;;;10.10;99.90;;;;;;5957767;24;20181;-78
2022/03/30 02:54:34;;;;;;;20.08;17.98;;;10.10;99.90;;;;;;5956092;24;20204;-79
2022/03/30 02:57:01;;;;;;;21.10;18.85;;;10.10;99.90;;;;;;5957192;24;20177;-78
2022/03/30 02:59:28;;;;;;;20.58;18.38;;;10.10;99.90;;;;;;5955701;24;20760;-80
2022/03/30 03:01:59;;;;;;;23.02;18.92;;;10.10;99.90;;;;;;5956356;24;20257;-80
2022/03/30 03:04:26;;;;;;;19.10;17.10;;;10.10;99.90;;;;;;5953063;24;20265;-79
2022/03/30 03:06:53;;;;;;;20.27;17.52;;;10.10;99.90;;;;;;5954279;24;20587;-78
2022/03/30 03:09:21;;;;;;;20.95;18.45;;;10.00;99.90;;;;;;5953082;24;20682;-77
2022/03/30 03:11:48;;;;;;;21.02;18.77;;;10.10;99.90;;;;;;5952566;24;20793;-78
2022/03/30 03:14:16;;;;;;;23.27;20.77;;;10.00;99.90;;;;;;5951425;24;20213;-79
2022/03/30 03:16:43;;;;;;;20.92;18.63;;;10.00;99.90;;;;;;5953786;24;20262;-79
2022/03/30 03:19:11;;;;;;;20.58;17.83;;;9.90;99.90;;;;;;5961673;24;20246;-80
2022/03/30 03:21:38;;;;;;;19.45;17.52;;;9.90;99.90;;;;;;5961391;24;20193;-79
2022/03/30 03:24:06;;;;;;;21.50;19.23;;;9.80;99.90;;;;;;5961416;24;20212;-79
2022/03/30 03:26:33;;;;;;;22.05;19.30;;;9.80;99.90;;;;;;5962748;24;20185;-79
2022/03/30 03:29:02;;;;;;;22.63;19.30;;;9.80;99.90;;;;;;5961119;24;20217;-78
2022/03/30 03:31:29;;;;;;;22.48;20.15;;;9.80;99.90;;;;;;5961737;24;20268;-79
2022/03/30 03:33:56;;;;;;;22.17;19.88;;;9.70;99.90;;;;;;5960684;24;20241;-79
2022/03/30 03:36:25;;;;;;;21.95;19.38;;;9.70;99.90;;;;;;5962270;24;20223;-79
2022/03/30 03:38:52;;;;;;;21.52;19.33;;;9.70;99.90;;;;;;5960093;24;20232;-80
2022/03/30 03:41:20;;;;;;;19.77;17.67;;;9.70;99.90;;;;;;5961863;24;20531;-79
2022/03/30 03:43:47;;;;;;;20.27;18.05;;;9.70;99.90;;;;;;5959713;24;20215;-79
2022/03/30 03:46:14;;;;;;;20.98;18.77;;;9.60;99.90;;;;;;5960691;24;20181;-82
2022/03/30 03:48:41;;;;;;;21.40;18.98;;;9.60;99.90;;;;;;5957775;24;20261;-79
2022/03/30 03:51:08;;;;;;;24.70;21.42;;;9.60;99.90;;;;;;5957008;24;20181;-79
2022/03/30 03:53:37;;;;;;;21.88;19.50;;;9.50;99.90;;;;;;5955920;24;20216;-79
2022/03/30 03:56:04;;;;;;;20.60;18.50;;;9.50;99.90;;;;;;5953950;24;20719;-78
2022/03/30 03:58:31;;;;;;;21.27;19.08;;;9.50;99.90;;;;;;5951529;24;20208;-78
2022/03/30 04:00:59;;;;;;;19.90;17.80;;;9.50;99.90;;;;;;5955740;24;20188;-80
2022/03/30 04:03:26;;;;;;;19.90;17.48;;;9.50;99.90;;;;;;5959931;24;20243;-78
2022/03/30 04:05:53;;;;;;;19.60;17.60;;;9.50;99.90;;;;;;5957868;24;20540;-78
2022/03/30 04:08:20;;;;;;;21.05;18.63;;;9.50;99.90;;;;;;5957876;24;20205;-79
2022/03/30 04:10:49;;;;;;;19.33;17.33;;;9.50;99.90;;;;;;5959093;24;20299;-83
2022/03/30 04:13:16;;;;;;;22.73;19.75;;;9.60;99.90;;;;;;5959406;24;20264;-79
2022/03/30 04:15:43;;;;;;;22.75;20.35;;;9.60;99.90;;;;;;5959784;24;20185;-81
2022/03/30 04:18:10;;;;;;;20.00;17.85;;;9.60;99.90;;;;;;5958520;24;20205;-80
2022/03/30 04:20:37;;;;;;;21.83;19.50;;;9.60;99.90;;;;;;5960061;24;20185;-79
2022/03/30 04:23:05;;;;;;;25.17;22.00;;;9.60;99.90;;;;;;5959131;24;20268;-79
2022/03/30 04:25:32;;;;;;;25.58;20.45;;;9.60;99.90;;;;;;5957990;24;20192;-78
2022/03/30 04:28:01;;;;;;;23.13;20.65;;;9.60;99.90;;;;;;5957791;24;20184;-79
2022/03/30 04:30:28;;;;;;;21.67;19.25;;;9.60;99.90;;;;;;5956339;24;20185;-79
2022/03/30 04:32:55;;;;;;;23.55;21.05;;;9.60;99.90;;;;;;5953545;24;20750;-79
2022/03/30 04:35:25;;;;;;;22.65;20.10;;;9.60;99.90;;;;;;5954671;24;20181;-79
2022/03/30 04:37:54;;;;;;;21.45;19.17;;;9.60;99.90;;;;;;5954729;24;20185;-78
2022/03/30 04:40:22;;;;;;;21.85;19.55;;;9.60;99.90;;;;;;5952399;24;20284;-78
2022/03/30 04:42:50;;;;;;;21.35;19.15;;;9.60;99.90;;;;;;5951783;24;20720;-79
2022/03/30 04:45:19;;;;;;;21.75;19.40;;;9.60;99.90;;;;;;5957989;24;20207;-79
2022/03/30 04:47:46;;;;;;;22.15;19.83;;;9.60;99.90;;;;;;5957705;24;20213;-80
2022/03/30 04:50:13;;;;;;;22.38;19.30;;;9.60;99.90;;;;;;5959307;24;20189;-79
2022/03/30 04:52:41;;;;;;;22.25;19.92;;;9.60;99.90;;;;;;5962072;24;20185;-81
2022/03/30 04:55:10;;;;;;;20.75;18.65;;;9.60;99.90;;;;;;5958462;24;20213;-78
2022/03/30 04:57:38;;;;;;;23.30;20.80;;;9.60;99.90;;;;;;5958296;24;20181;-79
2022/03/30 05:00:08;;;;;;;22.13;19.90;;;9.60;99.90;;;;;;5958664;24;20234;-79
2022/03/30 05:02:37;;;;;;;22.30;19.63;;;9.50;99.90;;;;;;5957383;24;20212;-79
2022/03/30 05:05:04;;;;;;;24.40;19.88;;;9.40;99.90;;;;;;5956864;24;20216;-79
2022/03/30 05:07:31;;;;;;;22.08;19.67;;;9.40;99.90;;;;;;5956436;24;20201;-79
2022/03/30 05:09:59;;;;;;;20.90;18.60;;;9.40;99.90;;;;;;5958214;24;20208;-79
2022/03/30 05:12:26;;;;;;;20.60;18.48;;;9.40;99.90;;;;;;5958158;24;20185;-79
2022/03/30 05:14:53;;;;;;;20.10;17.88;;;9.40;99.90;;;;;;5955766;24;20265;-79
2022/03/30 05:17:20;;;;;;;21.00;18.80;;;9.40;99.90;;;;;;5955307;24;20250;-78
2022/03/30 05:19:49;;;;;;;21.55;19.25;;;9.50;99.90;;;;;;5951284;24;20846;-79
2022/03/30 05:22:16;;;;;;;20.13;18.02;;;9.50;99.90;;;;;;5951926;24;20189;-78
2022/03/30 05:24:43;;;;;;;22.70;19.40;;;9.40;99.90;;;;;;5949212;24;20589;-78
2022/03/30 05:27:11;;;;;;;22.08;19.63;;;9.50;99.90;;;;;;5956831;24;20189;-80
2022/03/30 05:29:38;;;;;;;22.75;19.83;;;9.50;99.90;;;;;;5954866;24;20265;-78
2022/03/30 05:32:06;;;;;;;21.58;19.25;;;9.50;99.90;;;;;;5955257;24;20197;-77
2022/03/30 05:34:33;;;;;;;21.15;18.42;;;9.50;99.90;;;;;;5954876;24;20213;-79
2022/03/30 05:37:01;;;;;;;20.60;18.50;;;9.50;99.90;;;;;;5956878;24;20180;-79
2022/03/30 05:39:29;;;;;;;21.63;19.05;;;9.50;99.90;;;;;;5961938;24;20213;-79
2022/03/30 05:41:56;;;;;;;22.10;19.70;;;9.50;99.90;;;;;;5961002;24;20650;-79
2022/03/30 05:44:24;;;;;;;21.58;19.35;;;9.50;99.90;;;;;;5960667;24;20209;-78
2022/03/30 05:46:51;;;;;;;23.58;19.85;;;9.50;99.90;;;;;;5960148;24;20181;-79
2022/03/30 05:49:18;;;;;;;21.92;19.35;;;9.50;99.90;;;;;;5959333;24;20826;-78
2022/03/30 05:51:45;;;;;;;21.45;19.20;;;9.50;99.90;;;;;;5958193;24;20181;-80
2022/03/30 05:54:14;;;;;;;24.70;22.08;;;9.50;99.90;;;;;;5956828;24;20209;-80
2022/03/30 05:59:26;;;;;;;22.00;19.70;;;9.40;99.90;;;;;;5958503;24;20277;-80
2022/03/30 06:01:53;;;;;;;24.25;21.25;;;9.40;99.90;;;;;;5955749;24;20236;-79
2022/03/30 06:04:20;;;;;;;22.63;19.63;;;9.40;99.90;;;;;;5951768;24;20736;-78
2022/03/30 06:06:47;;;;;;;24.98;20.65;;;9.50;99.90;;;;;;5951335;24;20183;-79
2022/03/30 06:09:15;;;;;;;20.50;18.23;;;9.40;99.90;;;;;;5956680;24;20609;-79
2022/03/30 06:11:42;;;;;;;21.13;18.95;;;9.40;99.90;;;;;;5960571;24;20558;-80
2022/03/30 06:14:09;;;;;;;23.95;21.00;;;9.50;99.90;;;;;;5961312;24;20209;-79
2022/03/30 06:16:37;;;;;;;24.10;21.42;;;9.40;99.90;;;;;;5961256;24;20189;-78
2022/03/30 06:19:04;;;;;;;24.55;21.58;;;9.50;99.90;;;;;;5961124;24;20204;-80
2022/03/30 06:21:31;;;;;;;24.08;20.52;;;9.50;99.90;;;;;;5958861;24;20188;-79
2022/03/30 06:23:59;;;;;;;24.20;21.52;;;9.50;99.90;;;;;;5955778;24;20216;-78
2022/03/30 06:26:28;;;;;;;24.65;21.02;;;9.60;99.90;;;;;;5957360;24;20220;-81
2022/03/30 06:28:55;;;;;;;27.08;22.42;;;9.60;99.90;;;;;;5954878;24;20215;-81
2022/03/30 06:31:22;;;;;;;22.83;19.52;;;9.60;99.90;;;;;;5958258;24;20188;-79
2022/03/30 06:33:50;;;;;;;22.60;20.13;;;9.60;99.90;;;;;;5955846;24;20228;-79
2022/03/30 06:36:18;;;;;;;22.80;20.40;;;9.70;99.90;;;;;;5957587;24;20216;-78
2022/03/30 06:38:45;;;;;;;26.17;22.85;;;9.70;99.90;;;;;;5956235;24;20208;-78
2022/03/30 06:41:14;;;;;;;27.13;23.63;;;9.70;99.90;;;;;;5955430;24;20205;-78
2022/03/30 06:43:42;;;;;;;24.77;21.73;;;9.70;99.90;;;;;;5953362;24;20215;-79
2022/03/30 06:46:09;;;;;;;24.65;20.73;;;9.70;99.90;;;;;;5954013;24;20237;-78
2022/03/30 06:48:37;;;;;;;26.75;22.45;;;9.70;99.90;;;;;;5951453;24;20212;-78
2022/03/30 06:51:04;;;;;;;24.67;21.30;;;9.70;99.90;;;;;;5951375;24;20180;-79
2022/03/30 06:53:31;;;;;;;23.77;21.10;;;9.60;99.90;;;;;;5956772;24;20265;-78
2022/03/30 06:55:58;;;;;;;23.48;20.75;;;9.60;99.90;;;;;;5958793;24;20181;-79
2022/03/30 06:58:25;;;;;;;25.33;21.95;;;9.50;99.90;;;;;;5958019;24;20218;-80
2022/03/30 07:00:54;;;;;;;24.48;21.58;;;9.50;99.90;;;;;;5958725;24;20257;-81
2022/03/30 07:03:25;;;;;;;27.23;23.77;;;9.40;99.90;;;;;;5957219;24;20221;-78
2022/03/30 07:05:53;;;;;;;29.85;24.40;;;9.40;99.90;;;;;;5955210;24;20510;-81
2022/03/30 07:11:04;;;;;;;24.77;21.35;;;9.30;99.90;;;;;;5956109;24;20161;-84
2022/03/30 07:13:31;;;;;;;29.00;25.00;;;9.30;99.90;;;;;;5958112;24;20185;-80
2022/03/30 07:16:00;;;;;;;25.83;22.88;;;9.20;99.90;;;;;;5954858;24;20204;-80
2022/03/30 07:18:27;;;;;;;25.27;22.55;;;9.30;99.90;;;;;;5954103;24;20651;-80
2022/03/30 07:20:54;;;;;;;27.35;24.42;;;9.30;99.90;;;;;;5954004;24;20239;-79
2022/03/30 07:23:23;;;;;;;27.33;24.27;;;9.20;99.90;;;;;;5952969;24;20182;-79
2022/03/30 07:25:50;;;;;;;26.83;23.90;;;9.20;99.90;;;;;;5952186;24;20435;-79
2022/03/30 07:28:17;;;;;;;25.25;22.55;;;9.20;99.90;;;;;;5951071;24;20189;-79
2022/03/30 07:30:48;;;;;;;25.30;22.70;;;9.30;99.90;;;;;;5951363;24;20181;-79
2022/03/30 07:33:17;;;;;;;26.35;22.42;;;9.20;99.90;;;;;;5951974;24;20174;-79
2022/03/30 07:35:46;;;;;;;26.67;22.90;;;9.20;99.90;;;;;;5957402;24;20200;-83
2022/03/30 07:38:14;;;;;;;27.35;23.98;;;9.20;99.90;;;;;;5961169;24;20268;-79
2022/03/30 07:40:41;;;;;;;28.23;24.00;;;9.30;99.90;;;;;;5957159;24;20239;-80
2022/03/30 07:43:09;;;;;;;26.73;22.50;;;9.20;99.90;;;;;;5959570;24;20706;-81
2022/03/30 07:45:36;;;;;;;27.08;22.90;;;9.20;99.90;;;;;;5958739;24;20273;-79
2022/03/30 07:48:03;;;;;;;29.35;26.27;;;9.20;99.90;;;;;;5961418;24;20188;-80
2022/03/30 07:50:32;;;;;;;30.75;25.98;;;9.20;99.90;;;;;;5959801;24;20237;-79
2022/03/30 07:52:59;;;;;;;30.63;26.70;;;9.10;99.90;;;;;;5958236;24;20662;-81
2022/03/30 07:55:27;;;;;;;30.52;26.17;;;9.10;99.90;;;;;;5951448;24;20208;-81
2022/03/30 07:57:54;;;;;;;33.97;25.85;;;9.00;99.90;;;;;;5951253;24;20184;-77
2022/03/30 08:00:22;;;;;;;28.38;25.33;;;8.90;99.90;;;;;;5950356;24;20220;-80
2022/03/30 08:02:50;;;;;;;29.70;26.33;;;8.90;99.90;;;;;;5951866;24;20177;-82
2022/03/30 08:05:17;;;;;;;29.88;26.67;;;8.80;99.90;;;;;;5950504;24;20223;-80
2022/03/30 08:07:49;;;;;;;36.63;29.88;;;8.80;99.90;;;;;;5949475;24;20194;-78
2022/03/30 08:10:16;;;;;;;31.05;27.83;;;8.80;99.90;;;;;;5950065;24;20238;-81
2022/03/30 08:12:47;;;;;;;32.15;26.15;;;8.80;99.90;;;;;;5952325;24;20656;-81
2022/03/30 08:15:14;;;;;;;30.67;27.40;;;8.90;99.90;;;;;;5950428;24;20750;-80
2022/03/30 08:17:42;;;;;;;29.75;24.55;;;9.00;99.90;;;;;;5953020;24;20184;-85
2022/03/30 08:20:12;;;;;;;29.05;26.00;;;9.00;99.90;;;;;;5950941;24;20670;-80
2022/03/30 08:22:38;;;;;;;29.27;24.80;;;9.10;99.90;;;;;;5953297;24;20493;-81
2022/03/30 08:25:10;;;;;;;29.77;26.58;;;9.10;99.90;;;;;;5950945;24;20209;-79
2022/03/30 08:27:37;;;;;;;28.77;25.67;;;9.00;99.90;;;;;;5953153;24;20990;-82
2022/03/30 08:30:07;;;;;;;28.58;25.52;;;9.00;99.90;;;;;;5954706;24;20208;-82
2022/03/30 08:32:34;;;;;;;27.27;24.38;;;9.00;99.90;;;;;;5953435;24;20244;-79
2022/03/30 08:35:03;;;;;;;28.30;25.27;;;9.00;99.90;;;;;;5952378;24;20208;-85
2022/03/30 08:37:30;;;;;;;31.50;26.30;;;9.00;99.90;;;;;;5955322;24;20273;-82
2022/03/30 08:39:58;;;;;;;28.15;24.25;;;9.00;99.90;;;;;;5959350;24;20215;-81
2022/03/30 08:42:26;;;;;;;27.83;23.35;;;9.20;99.90;;;;;;5961901;24;20181;-80
2022/03/30 08:44:53;;;;;;;29.27;23.58;;;9.50;99.90;;;;;;5960486;24;20209;-79
2022/03/30 08:47:20;;;;;;;30.98;24.73;;;9.80;99.90;;;;;;5962084;24;20209;-80
2022/03/30 08:49:50;;;;;;;30.83;24.70;;;10.10;99.90;;;;;;5962415;24;20631;-80
2022/03/30 08:52:19;;;;;;;28.02;24.50;;;10.30;99.90;;;;;;5960516;24;20191;-79
2022/03/30 08:54:50;;;;;;;29.67;26.42;;;10.50;99.90;;;;;;5957569;24;20212;-80
2022/03/30 08:57:17;;;;;;;30.42;26.20;;;10.50;99.90;;;;;;5957628;24;20165;-78
2022/03/30 08:59:59;;;;;;;28.58;25.48;;;10.50;99.90;;;;;;5951110;24;20701;-79
2022/03/30 09:02:34;;;;;;;29.05;25.98;;;10.10;99.90;;;;;;5959031;24;20679;-78
2022/03/30 09:05:13;;;;;;;32.85;27.90;;;9.70;99.90;;;;;;5958211;24;20207;-78
2022/03/30 09:07:41;;;;;;;30.98;27.67;;;9.50;99.90;;;;;;5959949;24;20169;-78
2022/03/30 09:10:14;;;;;;;31.98;28.08;;;9.30;99.90;;;;;;5957847;24;20253;-79
2022/03/30 09:12:42;;;;;;;32.67;29.17;;;9.20;99.90;;;;;;5955026;24;20564;-82
2022/03/30 09:15:12;;;;;;;33.50;29.10;;;9.10;99.90;;;;;;5953559;24;20212;-79
2022/03/30 09:17:39;;;;;;;38.28;30.13;;;9.00;99.90;;;;;;5954671;24;20185;-82
2022/03/30 09:20:07;;;;;;;35.88;31.73;;;8.90;99.90;;;;;;5954142;24;20276;-80
2022/03/30 09:22:34;;;;;;;33.40;29.77;;;8.90;99.90;;;;;;5951067;24;20552;-82
2022/03/30 09:25:08;;;;;;;32.90;29.08;;;8.90;99.90;;;;;;5949487;24;20286;-79
2022/03/30 09:27:39;;;;;;;31.38;27.95;;;8.90;99.90;;;;;;5950727;24;20807;-82
2022/03/30 09:30:08;;;;;;;32.97;27.98;;;9.00;99.90;;;;;;5950462;24;20204;-81
2022/03/30 09:32:37;;;;;;;29.42;26.23;;;9.00;99.90;;;;;;5951256;24;20188;-82
2022/03/30 09:35:04;;;;;;;31.95;28.55;;;9.10;99.90;;;;;;5949339;24;20216;-81
2022/03/30 09:37:32;;;;;;;31.08;27.38;;;9.10;99.90;;;;;;5951659;24;20769;-81
2022/03/30 09:40:09;;;;;;;31.60;28.27;;;9.10;99.90;;;;;;5950720;24;20212;-82
2022/03/30 09:42:36;;;;;;;31.92;28.15;;;9.00;99.90;;;;;;5951593;24;20209;-81
2022/03/30 09:45:04;;;;;;;32.63;27.98;;;8.90;99.90;;;;;;5950668;24;20670;-83
2022/03/30 09:47:39;;;;;;;31.13;27.77;;;9.00;99.90;;;;;;5952052;24;20206;-78
2022/03/30 09:50:09;;;;;;;32.78;27.27;;;9.00;99.90;;;;;;5953097;24;20204;-83
2022/03/30 09:52:36;;;;;;;30.30;27.10;;;9.10;99.90;;;;;;5954714;24;20329;-78
2022/03/30 09:55:06;;;;;;;32.40;27.63;;;9.10;99.90;;;;;;5952667;24;20209;-78
2022/03/30 09:57:41;;;;;;;37.88;30.00;;;9.20;99.90;;;;;;5954576;24;20237;-79
2022/03/30 10:00:10;;;;;;;36.00;32.05;;;9.30;99.90;;;;;;5953730;24;20318;-79
2022/03/30 10:02:41;;;;;;;34.13;29.70;;;9.30;99.90;;;;;;5953999;24;20902;-78
2022/03/30 10:05:10;;;;;;;37.40;33.00;;;9.30;99.90;;;;;;5953768;24;20215;-79
2022/03/30 10:07:37;;;;;;;36.78;32.83;;;9.20;99.90;;;;;;5953338;24;20237;-82
2022/03/30 10:10:05;;;;;;;34.03;30.38;;;9.00;99.90;;;;;;5952058;24;20228;-82
2022/03/30 10:12:33;;;;;;;33.22;29.55;;;9.00;99.90;;;;;;5951666;24;20188;-79
2022/03/30 10:15:00;;;;;;;33.17;29.52;;;9.00;99.90;;;;;;5950960;24;20217;-78
2022/03/30 10:17:29;;;;;;;31.60;28.23;;;9.10;99.90;;;;;;5952210;24;20192;-80
2022/03/30 10:20:01;;;;;;;36.60;32.60;;;9.10;99.90;;;;;;5952245;24;20216;-79
2022/03/30 10:22:47;;;;;;;33.95;30.25;;;9.20;99.90;;;;;;5955172;24;20173;-80
2022/03/30 10:25:39;;;;;;;34.53;30.85;;;9.30;99.90;;;;;;5953882;24;20545;-78
2022/03/30 10:28:25;;;;;;;34.97;31.10;;;9.40;99.90;;;;;;5956739;24;20166;-79
2022/03/30 10:30:54;;;;;;;32.90;29.30;;;9.40;99.90;;;;;;5955851;24;20208;-79
2022/03/30 10:33:32;;;;;;;35.60;31.80;;;9.50;99.90;;;;;;5953841;24;20253;-82
2022/03/30 10:36:20;;;;;;;32.17;28.67;;;9.50;99.90;;;;;;5952558;24;20204;-80
2022/03/30 10:39:09;;;;;;;32.05;28.48;;;9.40;99.90;;;;;;5954209;24;20176;-81
2022/03/30 10:41:48;;;;;;;36.65;32.67;;;9.30;99.90;;;;;;5951985;24;20232;-81
2022/03/30 10:44:37;;;;;;;32.83;29.35;;;9.30;99.90;;;;;;5952623;24;20173;-80
2022/03/30 10:47:11;;;;;;;31.92;28.58;;;9.30;99.90;;;;;;5954913;24;20241;-81
2022/03/30 10:49:44;;;;;;;33.90;29.60;;;9.40;99.90;;;;;;5953019;24;20164;-80
2022/03/30 10:52:39;;;;;;;34.75;30.98;;;9.40;99.90;;;;;;5953935;24;20217;-79
2022/03/30 10:55:28;;;;;;;37.00;30.45;;;9.40;99.90;;;;;;5953007;24;20165;-79
2022/03/30 10:57:58;;;;;;;33.30;28.90;;;9.40;99.90;;;;;;5951162;24;20216;-79
2022/03/30 11:00:27;;;;;;;34.22;30.50;;;9.40;99.90;;;;;;5952846;24;20205;-81
2022/03/30 11:03:07;;;;;;;37.53;33.55;;;9.30;99.90;;;;;;5953223;24;20209;-79
2022/03/30 11:05:36;;;;;;;35.55;31.63;;;9.20;99.90;;;;;;5952028;24;20165;-81
2022/03/30 11:08:06;;;;;;;36.85;32.78;;;9.20;99.90;;;;;;5951729;24;20209;-80
2022/03/30 11:10:47;;;;;;;41.88;35.60;;;9.20;99.90;;;;;;5952749;24;20233;-81
2022/03/30 11:13:23;;;;;;;38.83;34.63;;;9.20;99.90;;;;;;5952153;24;20581;-79
2022/03/30 11:16:12;;;;;;;36.90;32.95;;;9.30;99.90;;;;;;5952899;24;20176;-80
2022/03/30 11:19:04;;;;;;;35.92;32.05;;;9.30;99.90;;;;;;5949983;24;20228;-79
2022/03/30 11:21:32;;;;;;;37.53;33.45;;;9.40;99.90;;;;;;5952003;24;20185;-78
2022/03/30 11:24:24;;;;;;;36.88;32.88;;;9.50;99.90;;;;;;5952326;24;20236;-79
2022/03/30 11:27:22;;;;;;;34.78;31.00;;;9.80;99.90;;;;;;5953605;24;20169;-81
2022/03/30 11:30:04;;;;;;;37.17;32.17;;;10.10;99.90;;;;;;5953926;24;20204;-82
2022/03/30 11:32:54;;;;;;;40.78;32.67;;;10.20;99.90;;;;;;5954341;24;20247;-79
2022/03/30 11:35:24;;;;;;;40.05;34.10;;;10.30;99.90;;;;;;5955975;24;20265;-81
2022/03/30 11:38:07;;;;;;;36.15;32.00;;;10.40;99.90;;;;;;5956909;24;20522;-79
2022/03/30 11:40:42;;;;;;;38.47;34.13;;;10.30;99.90;;;;;;5956322;24;20217;-82
2022/03/30 11:43:11;;;;;;;37.58;33.47;;;10.30;99.90;;;;;;5957834;24;20644;-82
2022/03/30 11:45:38;;;;;;;38.10;34.03;;;10.20;99.90;;;;;;5956247;24;20177;-80
2022/03/30 11:48:08;;;;;;;36.40;32.60;;;10.30;99.90;;;;;;5956319;24;20217;-79
2022/03/30 11:50:36;;;;;;;35.10;31.30;;;10.40;99.90;;;;;;5955925;24;20218;-81
2022/03/30 11:53:06;;;;;;;35.47;31.70;;;10.50;99.90;;;;;;5959292;24;20209;-79
2022/03/30 11:55:36;;;;;;;37.42;33.13;;;10.50;99.90;;;;;;5956524;24;20185;-79
2022/03/30 11:58:05;;;;;;;33.55;29.58;;;10.60;99.90;;;;;;5960901;24;20224;-80
2022/03/30 12:00:33;;;;;;;34.75;29.65;;;10.60;99.90;;;;;;5961216;24;20646;-79
2022/03/30 12:03:02;;;;;;;38.08;32.40;;;10.70;99.90;;;;;;5956459;24;20259;-81
2022/03/30 12:05:30;;;;;;;41.22;36.42;;;10.80;99.90;;;;;;5958609;24;20202;-81
2022/03/30 12:08:00;;;;;;;39.75;34.97;;;10.80;99.90;;;;;;5958630;24;20213;-80
2022/03/30 12:10:30;;;;;;;36.22;32.42;;;10.90;99.90;;;;;;5959294;24;20161;-79
2022/03/30 12:12:57;;;;;;;37.78;33.65;;;11.10;99.90;;;;;;5958171;24;20272;-79
2022/03/30 12:15:26;;;;;;;40.45;36.15;;;11.10;99.90;;;;;;5957407;24;20185;-80
2022/03/30 12:17:56;;;;;;;37.38;33.25;;;11.30;99.90;;;;;;5958470;24;20219;-79
2022/03/30 12:20:26;;;;;;;38.67;34.00;;;11.40;99.90;;;;;;5958135;24;20181;-79
2022/03/30 12:22:58;;;;;;;36.75;32.78;;;11.60;99.90;;;;;;5952724;24;20216;-79
2022/03/30 12:25:29;;;;;;;39.97;35.78;;;11.90;99.90;;;;;;5954842;24;20192;-79
2022/03/30 12:27:56;;;;;;;39.35;35.20;;;11.90;99.90;;;;;;5953880;24;20232;-79
2022/03/30 12:30:26;;;;;;;42.65;37.45;;;12.00;99.90;;;;;;5952754;24;20181;-79
2022/03/30 12:32:53;;;;;;;44.17;39.53;;;12.20;99.90;;;;;;5950528;24;20212;-79
2022/03/30 12:35:21;;;;;;;42.67;38.10;;;12.30;99.90;;;;;;5956026;24;20222;-80
2022/03/30 12:37:49;;;;;;;40.47;35.65;;;12.20;99.90;;;;;;5957774;24;20209;-80
2022/03/30 12:40:20;;;;;;;42.67;38.05;;;12.00;99.90;;;;;;5958837;24;20177;-79
2022/03/30 12:42:48;;;;;;;41.22;36.72;;;11.80;99.90;;;;;;5957824;24;20220;-80
2022/03/30 12:45:19;;;;;;;43.92;37.15;;;11.70;99.90;;;;;;5960407;24;20201;-80
2022/03/30 12:47:51;;;;;;;38.28;34.15;;;11.60;99.90;;;;;;5958524;24;20220;-80
2022/03/30 12:50:24;;;;;;;38.45;34.38;;;11.60;99.90;;;;;;5961098;24;20221;-82
2022/03/30 12:52:54;;;;;;;43.20;36.60;;;11.70;99.90;;;;;;5957963;24;20248;-79